sensor_id;sensor_type;location;lat;lon;timestamp;P1;durP1;ratioP1;P2;durP2;ratioP2
1320;SDS011;653;51.480;11.992;2023-03-03T00:01:38;33.33;;;16.80;;
1320;SDS011;653;51.480;11.992;2023-03-03T00:04:05;34.30;;;15.80;;
1320;SDS011;653;51.480;11.992;2023-03-03T00:06:32;40.63;;;19.13;;
1320;SDS011;653;51.480;11.992;2023-03-03T00:08:59;34.67;;;15.80;;
1320;SDS011;653;51.480;11.992;2023-03-03T00:11:26;37.80;;;15.50;;
1320;SDS011;653;51.480;11.992;2023-03-03T00:13:54;43.07;;;15.60;;
1320;SDS011;653;51.480;11.992;2023-03-03T00:16:37;38.17;;;15.17;;
1320;SDS011;653;51.480;11.992;2023-03-03T00:19:05;33.63;;;16.23;;
1320;SDS011;653;51.480;11.992;2023-03-03T00:21:45;56.97;;;16.90;;
1320;SDS011;653;51.480;11.992;2023-03-03T00:24:18;32.33;;;14.40;;
1320;SDS011;653;51.480;11.992;2023-03-03T00:26:50;30.77;;;15.20;;
1320;SDS011;653;51.480;11.992;2023-03-03T00:37:55;26.13;;;13.83;;
1320;SDS011;653;51.480;11.992;2023-03-03T00:40:38;25.50;;;13.20;;
1320;SDS011;653;51.480;11.992;2023-03-03T00:43:38;27.30;;;14.17;;
1320;SDS011;653;51.480;11.992;2023-03-03T00:46:02;27.37;;;14.80;;
1320;SDS011;653;51.480;11.992;2023-03-03T00:51:00;22.90;;;12.50;;
1320;SDS011;653;51.480;11.992;2023-03-03T00:53:27;23.03;;;12.80;;
1320;SDS011;653;51.480;11.992;2023-03-03T00:55:55;26.73;;;13.73;;
1320;SDS011;653;51.480;11.992;2023-03-03T00:58:23;33.70;;;12.87;;
1320;SDS011;653;51.480;11.992;2023-03-03T01:00:50;23.60;;;12.33;;
1320;SDS011;653;51.480;11.992;2023-03-03T01:03:20;20.73;;;12.37;;
1320;SDS011;653;51.480;11.992;2023-03-03T01:05:50;26.83;;;14.10;;
1320;SDS011;653;51.480;11.992;2023-03-03T01:08:16;21.17;;;12.80;;
1320;SDS011;653;51.480;11.992;2023-03-03T01:10:50;24.00;;;12.10;;
1320;SDS011;653;51.480;11.992;2023-03-03T01:13:20;29.83;;;13.40;;
1320;SDS011;653;51.480;11.992;2023-03-03T01:15:59;26.80;;;12.57;;
1320;SDS011;653;51.480;11.992;2023-03-03T01:18:28;20.77;;;11.63;;
1320;SDS011;653;51.480;11.992;2023-03-03T01:20:54;22.67;;;12.20;;
1320;SDS011;653;51.480;11.992;2023-03-03T01:23:20;21.80;;;12.13;;
1320;SDS011;653;51.480;11.992;2023-03-03T01:25:47;26.40;;;12.17;;
1320;SDS011;653;51.480;11.992;2023-03-03T01:28:13;24.90;;;11.93;;
1320;SDS011;653;51.480;11.992;2023-03-03T01:30:41;22.63;;;11.30;;
1320;SDS011;653;51.480;11.992;2023-03-03T01:33:09;23.83;;;11.50;;
1320;SDS011;653;51.480;11.992;2023-03-03T01:35:41;24.30;;;12.20;;
1320;SDS011;653;51.480;11.992;2023-03-03T01:38:07;21.77;;;11.60;;
1320;SDS011;653;51.480;11.992;2023-03-03T01:40:33;19.80;;;10.50;;
1320;SDS011;653;51.480;11.992;2023-03-03T01:43:03;18.13;;;10.80;;
1320;SDS011;653;51.480;11.992;2023-03-03T01:45:38;23.50;;;12.40;;
1320;SDS011;653;51.480;11.992;2023-03-03T01:48:15;26.17;;;10.57;;
1320;SDS011;653;51.480;11.992;2023-03-03T01:53:39;30.80;;;11.97;;
1320;SDS011;653;51.480;11.992;2023-03-03T01:56:08;19.17;;;8.97;;
1320;SDS011;653;51.480;11.992;2023-03-03T01:58:40;28.43;;;10.37;;
1320;SDS011;653;51.480;11.992;2023-03-03T02:01:08;27.47;;;10.70;;
1320;SDS011;653;51.480;11.992;2023-03-03T02:03:37;25.30;;;11.50;;
1320;SDS011;653;51.480;11.992;2023-03-03T02:06:05;21.17;;;9.87;;
1320;SDS011;653;51.480;11.992;2023-03-03T02:08:38;23.97;;;11.33;;
1320;SDS011;653;51.480;11.992;2023-03-03T02:11:10;20.13;;;10.50;;
1320;SDS011;653;51.480;11.992;2023-03-03T02:13:38;26.87;;;10.80;;
1320;SDS011;653;51.480;11.992;2023-03-03T02:16:05;20.50;;;10.10;;
1320;SDS011;653;51.480;11.992;2023-03-03T02:18:31;23.50;;;10.80;;
1320;SDS011;653;51.480;11.992;2023-03-03T02:21:09;22.10;;;10.60;;
1320;SDS011;653;51.480;11.992;2023-03-03T02:26:29;22.00;;;11.20;;
1320;SDS011;653;51.480;11.992;2023-03-03T02:28:57;24.13;;;12.00;;
1320;SDS011;653;51.480;11.992;2023-03-03T02:31:25;21.17;;;11.73;;
1320;SDS011;653;51.480;11.992;2023-03-03T02:33:54;29.43;;;13.17;;
1320;SDS011;653;51.480;11.992;2023-03-03T02:36:27;27.43;;;12.63;;
1320;SDS011;653;51.480;11.992;2023-03-03T02:44:23;30.87;;;15.43;;
1320;SDS011;653;51.480;11.992;2023-03-03T02:46:50;36.53;;;15.40;;
1320;SDS011;653;51.480;11.992;2023-03-03T02:49:20;42.33;;;17.37;;
1320;SDS011;653;51.480;11.992;2023-03-03T02:51:49;50.13;;;18.67;;
1320;SDS011;653;51.480;11.992;2023-03-03T02:54:17;45.57;;;18.37;;
1320;SDS011;653;51.480;11.992;2023-03-03T02:56:46;37.50;;;15.73;;
1320;SDS011;653;51.480;11.992;2023-03-03T02:59:14;37.93;;;16.10;;
1320;SDS011;653;51.480;11.992;2023-03-03T03:01:40;30.70;;;14.77;;
1320;SDS011;653;51.480;11.992;2023-03-03T03:04:11;33.33;;;16.07;;
1320;SDS011;653;51.480;11.992;2023-03-03T03:06:44;43.43;;;15.77;;
1320;SDS011;653;51.480;11.992;2023-03-03T03:09:12;34.53;;;16.20;;
1320;SDS011;653;51.480;11.992;2023-03-03T03:11:39;33.03;;;15.30;;
1320;SDS011;653;51.480;11.992;2023-03-03T03:14:07;35.07;;;16.87;;
1320;SDS011;653;51.480;11.992;2023-03-03T03:16:33;38.30;;;17.60;;
1320;SDS011;653;51.480;11.992;2023-03-03T03:19:00;36.90;;;16.10;;
1320;SDS011;653;51.480;11.992;2023-03-03T03:21:28;41.13;;;16.50;;
1320;SDS011;653;51.480;11.992;2023-03-03T03:23:55;43.73;;;16.97;;
1320;SDS011;653;51.480;11.992;2023-03-03T03:26:22;34.80;;;17.00;;
1320;SDS011;653;51.480;11.992;2023-03-03T03:28:49;32.20;;;17.57;;
1320;SDS011;653;51.480;11.992;2023-03-03T03:31:16;33.47;;;16.03;;
1320;SDS011;653;51.480;11.992;2023-03-03T03:33:42;36.83;;;16.90;;
1320;SDS011;653;51.480;11.992;2023-03-03T03:36:09;36.97;;;18.00;;
1320;SDS011;653;51.480;11.992;2023-03-03T03:38:37;40.00;;;15.50;;
1320;SDS011;653;51.480;11.992;2023-03-03T03:41:04;33.77;;;15.63;;
1320;SDS011;653;51.480;11.992;2023-03-03T03:43:32;35.57;;;16.37;;
1320;SDS011;653;51.480;11.992;2023-03-03T03:45:58;37.77;;;16.47;;
1320;SDS011;653;51.480;11.992;2023-03-03T03:48:25;28.60;;;14.37;;
1320;SDS011;653;51.480;11.992;2023-03-03T03:50:51;34.70;;;17.00;;
1320;SDS011;653;51.480;11.992;2023-03-03T03:53:19;30.53;;;14.70;;
1320;SDS011;653;51.480;11.992;2023-03-03T03:55:45;33.03;;;15.50;;
1320;SDS011;653;51.480;11.992;2023-03-03T03:58:13;36.27;;;15.97;;
1320;SDS011;653;51.480;11.992;2023-03-03T04:00:43;42.67;;;17.73;;
1320;SDS011;653;51.480;11.992;2023-03-03T04:03:11;42.40;;;17.03;;
1320;SDS011;653;51.480;11.992;2023-03-03T04:05:39;39.57;;;16.57;;
1320;SDS011;653;51.480;11.992;2023-03-03T04:08:07;32.03;;;13.80;;
1320;SDS011;653;51.480;11.992;2023-03-03T04:10:35;33.70;;;15.70;;
1320;SDS011;653;51.480;11.992;2023-03-03T04:13:02;29.60;;;11.90;;
1320;SDS011;653;51.480;11.992;2023-03-03T04:15:29;25.73;;;12.90;;
1320;SDS011;653;51.480;11.992;2023-03-03T04:17:57;26.43;;;14.30;;
1320;SDS011;653;51.480;11.992;2023-03-03T04:20:23;27.63;;;13.90;;
1320;SDS011;653;51.480;11.992;2023-03-03T04:22:49;36.70;;;16.30;;
1320;SDS011;653;51.480;11.992;2023-03-03T04:25:16;37.73;;;14.70;;
1320;SDS011;653;51.480;11.992;2023-03-03T04:27:43;38.13;;;14.60;;
1320;SDS011;653;51.480;11.992;2023-03-03T04:30:10;28.30;;;12.40;;
1320;SDS011;653;51.480;11.992;2023-03-03T04:32:37;26.37;;;14.80;;
1320;SDS011;653;51.480;11.992;2023-03-03T04:35:03;27.97;;;14.93;;
1320;SDS011;653;51.480;11.992;2023-03-03T04:37:28;27.47;;;15.07;;
1320;SDS011;653;51.480;11.992;2023-03-03T04:39:55;27.03;;;14.17;;
1320;SDS011;653;51.480;11.992;2023-03-03T04:42:21;23.97;;;13.27;;
1320;SDS011;653;51.480;11.992;2023-03-03T04:44:46;25.87;;;15.30;;
1320;SDS011;653;51.480;11.992;2023-03-03T04:47:13;19.67;;;11.70;;
1320;SDS011;653;51.480;11.992;2023-03-03T04:49:40;17.90;;;10.07;;
1320;SDS011;653;51.480;11.992;2023-03-03T04:52:06;19.73;;;12.40;;
1320;SDS011;653;51.480;11.992;2023-03-03T04:54:33;18.00;;;9.50;;
1320;SDS011;653;51.480;11.992;2023-03-03T04:57:00;18.33;;;9.50;;
1320;SDS011;653;51.480;11.992;2023-03-03T04:59:29;18.30;;;9.83;;
1320;SDS011;653;51.480;11.992;2023-03-03T05:01:56;19.43;;;10.53;;
1320;SDS011;653;51.480;11.992;2023-03-03T05:04:23;18.80;;;9.77;;
1320;SDS011;653;51.480;11.992;2023-03-03T05:06:48;29.60;;;13.30;;
1320;SDS011;653;51.480;11.992;2023-03-03T05:09:15;19.37;;;10.93;;
1320;SDS011;653;51.480;11.992;2023-03-03T05:11:40;15.60;;;9.63;;
1320;SDS011;653;51.480;11.992;2023-03-03T05:14:07;20.60;;;9.63;;
1320;SDS011;653;51.480;11.992;2023-03-03T05:16:34;21.70;;;10.80;;
1320;SDS011;653;51.480;11.992;2023-03-03T05:19:01;23.10;;;11.70;;
1320;SDS011;653;51.480;11.992;2023-03-03T05:21:29;26.20;;;13.20;;
1320;SDS011;653;51.480;11.992;2023-03-03T05:23:55;24.13;;;11.80;;
1320;SDS011;653;51.480;11.992;2023-03-03T05:26:22;24.07;;;12.60;;
1320;SDS011;653;51.480;11.992;2023-03-03T05:28:48;24.57;;;12.47;;
1320;SDS011;653;51.480;11.992;2023-03-03T05:31:14;32.00;;;13.90;;
1320;SDS011;653;51.480;11.992;2023-03-03T05:33:40;26.53;;;14.63;;
1320;SDS011;653;51.480;11.992;2023-03-03T05:36:07;26.40;;;12.10;;
1320;SDS011;653;51.480;11.992;2023-03-03T05:38:32;21.10;;;11.03;;
1320;SDS011;653;51.480;11.992;2023-03-03T05:41:00;21.30;;;11.13;;
1320;SDS011;653;51.480;11.992;2023-03-03T05:43:26;28.53;;;11.80;;
1320;SDS011;653;51.480;11.992;2023-03-03T05:45:55;23.97;;;11.20;;
1320;SDS011;653;51.480;11.992;2023-03-03T05:48:22;29.70;;;14.60;;
1320;SDS011;653;51.480;11.992;2023-03-03T05:50:48;25.17;;;11.67;;
1320;SDS011;653;51.480;11.992;2023-03-03T05:53:15;24.03;;;12.60;;
1320;SDS011;653;51.480;11.992;2023-03-03T05:55:42;29.27;;;12.30;;
1320;SDS011;653;51.480;11.992;2023-03-03T05:58:08;21.47;;;11.37;;
1320;SDS011;653;51.480;11.992;2023-03-03T06:00:35;23.03;;;11.10;;
1320;SDS011;653;51.480;11.992;2023-03-03T06:03:01;29.83;;;11.40;;
1320;SDS011;653;51.480;11.992;2023-03-03T06:05:28;24.50;;;11.57;;
1320;SDS011;653;51.480;11.992;2023-03-03T06:07:55;19.43;;;10.40;;
1320;SDS011;653;51.480;11.992;2023-03-03T06:10:21;21.13;;;11.43;;
1320;SDS011;653;51.480;11.992;2023-03-03T06:12:48;22.30;;;10.50;;
1320;SDS011;653;51.480;11.992;2023-03-03T06:15:16;22.43;;;12.20;;
1320;SDS011;653;51.480;11.992;2023-03-03T06:17:43;19.93;;;10.70;;
1320;SDS011;653;51.480;11.992;2023-03-03T06:20:10;27.50;;;11.37;;
1320;SDS011;653;51.480;11.992;2023-03-03T06:22:36;18.23;;;10.40;;
1320;SDS011;653;51.480;11.992;2023-03-03T06:25:04;20.13;;;9.60;;
1320;SDS011;653;51.480;11.992;2023-03-03T06:27:30;20.83;;;11.00;;
1320;SDS011;653;51.480;11.992;2023-03-03T06:29:57;20.57;;;10.17;;
1320;SDS011;653;51.480;11.992;2023-03-03T06:32:22;21.27;;;10.50;;
1320;SDS011;653;51.480;11.992;2023-03-03T06:34:49;20.50;;;10.17;;
1320;SDS011;653;51.480;11.992;2023-03-03T06:37:15;16.47;;;9.93;;
1320;SDS011;653;51.480;11.992;2023-03-03T06:39:42;20.30;;;10.40;;
1320;SDS011;653;51.480;11.992;2023-03-03T06:42:09;20.43;;;10.97;;
1320;SDS011;653;51.480;11.992;2023-03-03T06:44:36;21.30;;;10.53;;
1320;SDS011;653;51.480;11.992;2023-03-03T06:47:02;24.40;;;10.67;;
1320;SDS011;653;51.480;11.992;2023-03-03T06:49:29;21.73;;;11.70;;
1320;SDS011;653;51.480;11.992;2023-03-03T06:51:56;18.77;;;10.00;;
1320;SDS011;653;51.480;11.992;2023-03-03T06:54:26;23.10;;;11.00;;
1320;SDS011;653;51.480;11.992;2023-03-03T06:56:54;21.30;;;10.87;;
1320;SDS011;653;51.480;11.992;2023-03-03T06:59:24;22.80;;;11.17;;
1320;SDS011;653;51.480;11.992;2023-03-03T07:01:51;26.23;;;14.00;;
1320;SDS011;653;51.480;11.992;2023-03-03T07:04:31;20.83;;;10.73;;
1320;SDS011;653;51.480;11.992;2023-03-03T07:06:59;24.20;;;11.13;;
1320;SDS011;653;51.480;11.992;2023-03-03T07:09:54;25.30;;;11.17;;
1320;SDS011;653;51.480;11.992;2023-03-03T07:12:25;24.00;;;11.80;;
1320;SDS011;653;51.480;11.992;2023-03-03T07:15:11;22.97;;;12.30;;
1320;SDS011;653;51.480;11.992;2023-03-03T07:17:41;22.27;;;11.87;;
1320;SDS011;653;51.480;11.992;2023-03-03T07:20:16;27.73;;;13.73;;
1320;SDS011;653;51.480;11.992;2023-03-03T07:23:17;24.80;;;11.57;;
1320;SDS011;653;51.480;11.992;2023-03-03T07:25:52;26.70;;;14.83;;
1320;SDS011;653;51.480;11.992;2023-03-03T07:28:25;31.90;;;17.50;;
1320;SDS011;653;51.480;11.992;2023-03-03T07:30:52;32.43;;;14.60;;
1320;SDS011;653;51.480;11.992;2023-03-03T07:33:42;32.90;;;16.33;;
1320;SDS011;653;51.480;11.992;2023-03-03T07:36:30;60.23;;;38.83;;
1320;SDS011;653;51.480;11.992;2023-03-03T07:38:59;28.50;;;17.23;;
1320;SDS011;653;51.480;11.992;2023-03-03T07:41:26;25.60;;;11.03;;
1320;SDS011;653;51.480;11.992;2023-03-03T07:44:05;22.03;;;12.07;;
1320;SDS011;653;51.480;11.992;2023-03-03T07:46:43;22.83;;;10.40;;
1320;SDS011;653;51.480;11.992;2023-03-03T07:58:14;23.83;;;11.10;;
1320;SDS011;653;51.480;11.992;2023-03-03T08:03:50;25.47;;;11.90;;
1320;SDS011;653;51.480;11.992;2023-03-03T08:09:03;29.67;;;13.17;;
1320;SDS011;653;51.480;11.992;2023-03-03T08:14:35;25.13;;;12.53;;
1320;SDS011;653;51.480;11.992;2023-03-03T08:17:06;29.60;;;12.03;;
1320;SDS011;653;51.480;11.992;2023-03-03T08:19:50;24.77;;;13.77;;
1320;SDS011;653;51.480;11.992;2023-03-03T08:22:24;31.33;;;15.37;;
1320;SDS011;653;51.480;11.992;2023-03-03T08:24:57;31.80;;;14.03;;
1320;SDS011;653;51.480;11.992;2023-03-03T08:27:23;31.43;;;14.73;;
1320;SDS011;653;51.480;11.992;2023-03-03T08:29:50;19.73;;;11.70;;
1320;SDS011;653;51.480;11.992;2023-03-03T08:32:16;21.67;;;11.10;;
1320;SDS011;653;51.480;11.992;2023-03-03T08:34:43;21.13;;;10.50;;
1320;SDS011;653;51.480;11.992;2023-03-03T08:37:11;25.07;;;11.50;;
1320;SDS011;653;51.480;11.992;2023-03-03T08:39:38;26.17;;;12.23;;
1320;SDS011;653;51.480;11.992;2023-03-03T08:42:03;27.80;;;11.90;;
1320;SDS011;653;51.480;11.992;2023-03-03T08:44:29;30.97;;;12.03;;
1320;SDS011;653;51.480;11.992;2023-03-03T08:46:56;26.03;;;11.83;;
1320;SDS011;653;51.480;11.992;2023-03-03T08:49:23;21.93;;;11.87;;
1320;SDS011;653;51.480;11.992;2023-03-03T08:51:48;19.33;;;10.93;;
1320;SDS011;653;51.480;11.992;2023-03-03T08:54:15;26.73;;;12.80;;
1320;SDS011;653;51.480;11.992;2023-03-03T08:56:42;23.43;;;11.47;;
1320;SDS011;653;51.480;11.992;2023-03-03T08:59:08;26.10;;;13.37;;
1320;SDS011;653;51.480;11.992;2023-03-03T09:01:37;30.50;;;13.60;;
1320;SDS011;653;51.480;11.992;2023-03-03T09:04:03;26.00;;;12.90;;
1320;SDS011;653;51.480;11.992;2023-03-03T09:06:29;38.03;;;13.40;;
1320;SDS011;653;51.480;11.992;2023-03-03T09:08:55;30.53;;;14.40;;
1320;SDS011;653;51.480;11.992;2023-03-03T09:11:24;30.07;;;13.93;;
1320;SDS011;653;51.480;11.992;2023-03-03T09:13:58;25.80;;;13.13;;
1320;SDS011;653;51.480;11.992;2023-03-03T09:16:34;34.03;;;14.27;;
1320;SDS011;653;51.480;11.992;2023-03-03T09:19:25;25.13;;;14.70;;
1320;SDS011;653;51.480;11.992;2023-03-03T09:22:01;30.33;;;14.17;;
1320;SDS011;653;51.480;11.992;2023-03-03T09:24:56;30.13;;;15.67;;
1320;SDS011;653;51.480;11.992;2023-03-03T09:27:30;35.30;;;15.33;;
1320;SDS011;653;51.480;11.992;2023-03-03T09:30:20;40.57;;;15.90;;
1320;SDS011;653;51.480;11.992;2023-03-03T09:32:52;31.47;;;16.50;;
1320;SDS011;653;51.480;11.992;2023-03-03T09:35:37;34.87;;;16.70;;
1320;SDS011;653;51.480;11.992;2023-03-03T09:38:25;34.87;;;16.50;;
1320;SDS011;653;51.480;11.992;2023-03-03T09:55:38;27.17;;;13.03;;
1320;SDS011;653;51.480;11.992;2023-03-03T10:04:17;25.07;;;11.97;;
1320;SDS011;653;51.480;11.992;2023-03-03T10:12:56;26.87;;;13.93;;
1320;SDS011;653;51.480;11.992;2023-03-03T10:15:52;27.60;;;14.10;;
1320;SDS011;653;51.480;11.992;2023-03-03T10:21:11;28.03;;;14.20;;
1320;SDS011;653;51.480;11.992;2023-03-03T10:26:57;24.63;;;14.07;;
1320;SDS011;653;51.480;11.992;2023-03-03T10:35:51;26.13;;;13.37;;
1320;SDS011;653;51.480;11.992;2023-03-03T10:41:25;25.23;;;13.50;;
1320;SDS011;653;51.480;11.992;2023-03-03T10:52:45;22.13;;;12.17;;
1320;SDS011;653;51.480;11.992;2023-03-03T10:55:50;18.60;;;11.13;;
1320;SDS011;653;51.480;11.992;2023-03-03T10:58:25;23.60;;;12.33;;
1320;SDS011;653;51.480;11.992;2023-03-03T11:01:10;21.50;;;11.43;;
1320;SDS011;653;51.480;11.992;2023-03-03T11:09:23;29.30;;;14.40;;
1320;SDS011;653;51.480;11.992;2023-03-03T11:18:01;19.83;;;11.37;;
1320;SDS011;653;51.480;11.992;2023-03-03T11:30:29;21.13;;;12.80;;
1320;SDS011;653;51.480;11.992;2023-03-03T11:33:21;22.27;;;12.77;;
1320;SDS011;653;51.480;11.992;2023-03-03T11:38:56;24.33;;;12.37;;
1320;SDS011;653;51.480;11.992;2023-03-03T11:44:31;25.57;;;11.90;;
1320;SDS011;653;51.480;11.992;2023-03-03T11:47:09;22.90;;;13.30;;
1320;SDS011;653;51.480;11.992;2023-03-03T11:50:00;25.97;;;13.80;;
1320;SDS011;653;51.480;11.992;2023-03-03T11:55:44;21.70;;;12.30;;
1320;SDS011;653;51.480;11.992;2023-03-03T11:58:38;21.07;;;11.93;;
1320;SDS011;653;51.480;11.992;2023-03-03T12:01:21;28.03;;;13.60;;
1320;SDS011;653;51.480;11.992;2023-03-03T12:04:12;25.00;;;12.27;;
1320;SDS011;653;51.480;11.992;2023-03-03T12:12:41;22.17;;;12.40;;
1320;SDS011;653;51.480;11.992;2023-03-03T12:37:38;18.97;;;9.90;;
1320;SDS011;653;51.480;11.992;2023-03-03T12:40:20;17.43;;;10.40;;
1320;SDS011;653;51.480;11.992;2023-03-03T12:43:06;24.43;;;10.67;;
1320;SDS011;653;51.480;11.992;2023-03-03T12:48:36;21.40;;;11.17;;
1320;SDS011;653;51.480;11.992;2023-03-03T12:57:00;18.40;;;9.57;;
1320;SDS011;653;51.480;11.992;2023-03-03T13:02:47;13.17;;;8.53;;
1320;SDS011;653;51.480;11.992;2023-03-03T13:05:39;14.97;;;8.80;;
1320;SDS011;653;51.480;11.992;2023-03-03T13:08:29;16.10;;;8.87;;
1320;SDS011;653;51.480;11.992;2023-03-03T13:11:24;17.00;;;9.30;;
1320;SDS011;653;51.480;11.992;2023-03-03T13:14:22;17.83;;;9.97;;
1320;SDS011;653;51.480;11.992;2023-03-03T13:17:14;20.73;;;11.50;;
1320;SDS011;653;51.480;11.992;2023-03-03T13:31:18;17.13;;;11.07;;
1320;SDS011;653;51.480;11.992;2023-03-03T13:33:52;19.70;;;10.07;;
1320;SDS011;653;51.480;11.992;2023-03-03T13:36:22;21.80;;;9.43;;
1320;SDS011;653;51.480;11.992;2023-03-03T13:38:52;15.60;;;8.90;;
1320;SDS011;653;51.480;11.992;2023-03-03T13:47:20;18.80;;;10.00;;
1320;SDS011;653;51.480;11.992;2023-03-03T13:53:03;17.20;;;9.00;;
1320;SDS011;653;51.480;11.992;2023-03-03T14:04:28;13.87;;;8.47;;
1320;SDS011;653;51.480;11.992;2023-03-03T14:10:24;17.30;;;8.97;;
1320;SDS011;653;51.480;11.992;2023-03-03T14:12:59;13.00;;;7.17;;
1320;SDS011;653;51.480;11.992;2023-03-03T14:15:37;14.87;;;9.03;;
1320;SDS011;653;51.480;11.992;2023-03-03T14:21:08;15.03;;;8.07;;
1320;SDS011;653;51.480;11.992;2023-03-03T14:23:49;13.50;;;8.33;;
1320;SDS011;653;51.480;11.992;2023-03-03T14:26:58;11.97;;;7.73;;
1320;SDS011;653;51.480;11.992;2023-03-03T14:32:01;15.37;;;8.73;;
1320;SDS011;653;51.480;11.992;2023-03-03T14:34:38;14.00;;;7.57;;
1320;SDS011;653;51.480;11.992;2023-03-03T14:39:59;16.67;;;8.20;;
1320;SDS011;653;51.480;11.992;2023-03-03T14:42:54;16.53;;;7.73;;
1320;SDS011;653;51.480;11.992;2023-03-03T14:45:34;16.70;;;8.43;;
1320;SDS011;653;51.480;11.992;2023-03-03T14:48:44;10.43;;;7.67;;
1320;SDS011;653;51.480;11.992;2023-03-03T14:50:55;16.67;;;9.10;;
1320;SDS011;653;51.480;11.992;2023-03-03T14:53:34;17.23;;;9.17;;
1320;SDS011;653;51.480;11.992;2023-03-03T14:58:54;19.77;;;8.17;;
1320;SDS011;653;51.480;11.992;2023-03-03T15:01:41;12.90;;;7.50;;
1320;SDS011;653;51.480;11.992;2023-03-03T15:06:48;17.48;;;10.32;;
1320;SDS011;653;51.480;11.992;2023-03-03T15:09:29;10.87;;;8.00;;
1320;SDS011;653;51.480;11.992;2023-03-03T15:12:21;14.00;;;7.80;;
1320;SDS011;653;51.480;11.992;2023-03-03T15:15:18;11.00;;;7.17;;
1320;SDS011;653;51.480;11.992;2023-03-03T15:26:21;14.07;;;8.10;;
1320;SDS011;653;51.480;11.992;2023-03-03T15:29:27;14.70;;;8.37;;
1320;SDS011;653;51.480;11.992;2023-03-03T15:35:04;18.60;;;8.20;;
1320;SDS011;653;51.480;11.992;2023-03-03T15:40:48;14.17;;;8.80;;
1320;SDS011;653;51.480;11.992;2023-03-03T15:55:32;15.03;;;8.27;;
1320;SDS011;653;51.480;11.992;2023-03-03T15:58:28;21.60;;;11.30;;
1320;SDS011;653;51.480;11.992;2023-03-03T16:04:19;12.80;;;7.27;;
1320;SDS011;653;51.480;11.992;2023-03-03T16:29:24;11.43;;;6.80;;
1320;SDS011;653;51.480;11.992;2023-03-03T16:32:20;14.70;;;7.50;;
1320;SDS011;653;51.480;11.992;2023-03-03T16:34:56;13.70;;;6.60;;
1320;SDS011;653;51.480;11.992;2023-03-03T16:43:03;10.70;;;6.83;;
1320;SDS011;653;51.480;11.992;2023-03-03T16:45:41;14.40;;;7.70;;
1320;SDS011;653;51.480;11.992;2023-03-03T16:54:07;10.30;;;7.10;;
1320;SDS011;653;51.480;11.992;2023-03-03T16:56:45;12.73;;;7.40;;
1320;SDS011;653;51.480;11.992;2023-03-03T16:59:33;13.73;;;7.77;;
1320;SDS011;653;51.480;11.992;2023-03-03T17:23:14;15.20;;;7.50;;
1320;SDS011;653;51.480;11.992;2023-03-03T17:25:49;12.90;;;7.30;;
1320;SDS011;653;51.480;11.992;2023-03-03T17:28:31;11.40;;;7.17;;
1320;SDS011;653;51.480;11.992;2023-03-03T17:31:31;14.30;;;7.90;;
1320;SDS011;653;51.480;11.992;2023-03-03T17:34:32;12.77;;;7.50;;
1320;SDS011;653;51.480;11.992;2023-03-03T17:45:41;14.00;;;9.27;;
1320;SDS011;653;51.480;11.992;2023-03-03T18:00:21;19.80;;;9.93;;
1320;SDS011;653;51.480;11.992;2023-03-03T18:05:47;24.50;;;13.40;;
1320;SDS011;653;51.480;11.992;2023-03-03T18:17:38;19.23;;;10.60;;
1320;SDS011;653;51.480;11.992;2023-03-03T18:23:38;16.73;;;10.40;;
1320;SDS011;653;51.480;11.992;2023-03-03T18:26:45;20.60;;;10.83;;
1320;SDS011;653;51.480;11.992;2023-03-03T18:29:26;18.20;;;10.60;;
1320;SDS011;653;51.480;11.992;2023-03-03T18:34:45;15.87;;;9.80;;
1320;SDS011;653;51.480;11.992;2023-03-03T18:50:38;15.00;;;8.97;;
1320;SDS011;653;51.480;11.992;2023-03-03T18:55:57;16.40;;;9.33;;
1320;SDS011;653;51.480;11.992;2023-03-03T18:58:43;14.40;;;9.07;;
1320;SDS011;653;51.480;11.992;2023-03-03T19:08:58;14.80;;;9.10;;
1320;SDS011;653;51.480;11.992;2023-03-03T19:14:30;15.90;;;9.73;;
1320;SDS011;653;51.480;11.992;2023-03-03T19:20:00;16.90;;;8.90;;
1320;SDS011;653;51.480;11.992;2023-03-03T19:22:50;16.93;;;9.23;;
1320;SDS011;653;51.480;11.992;2023-03-03T19:25:22;14.57;;;9.13;;
1320;SDS011;653;51.480;11.992;2023-03-03T19:39:13;13.13;;;8.53;;
1320;SDS011;653;51.480;11.992;2023-03-03T19:56:36;23.20;;;13.47;;
1320;SDS011;653;51.480;11.992;2023-03-03T20:08:08;22.30;;;14.00;;
1320;SDS011;653;51.480;11.992;2023-03-03T20:16:45;31.33;;;14.97;;
1320;SDS011;653;51.480;11.992;2023-03-03T20:25:07;34.70;;;20.30;;
1320;SDS011;653;51.480;11.992;2023-03-03T20:28:02;38.87;;;19.47;;
1320;SDS011;653;51.480;11.992;2023-03-03T20:33:47;42.93;;;21.07;;
1320;SDS011;653;51.480;11.992;2023-03-03T20:42:57;40.03;;;19.60;;
1320;SDS011;653;51.480;11.992;2023-03-03T21:00:22;41.03;;;23.40;;
1320;SDS011;653;51.480;11.992;2023-03-03T21:03:32;45.10;;;22.23;;
1320;SDS011;653;51.480;11.992;2023-03-03T21:06:05;38.37;;;19.90;;
1320;SDS011;653;51.480;11.992;2023-03-03T21:11:20;41.87;;;21.60;;
1320;SDS011;653;51.480;11.992;2023-03-03T21:14:10;41.97;;;20.03;;
1320;SDS011;653;51.480;11.992;2023-03-03T21:17:00;37.73;;;21.00;;
1320;SDS011;653;51.480;11.992;2023-03-03T21:21:57;39.53;;;20.13;;
1320;SDS011;653;51.480;11.992;2023-03-03T21:24:44;31.30;;;20.70;;
1320;SDS011;653;51.480;11.992;2023-03-03T21:30:03;37.20;;;19.60;;
1320;SDS011;653;51.480;11.992;2023-03-03T21:32:35;41.87;;;21.77;;
1320;SDS011;653;51.480;11.992;2023-03-03T21:35:18;40.03;;;21.47;;
1320;SDS011;653;51.480;11.992;2023-03-03T21:37:55;41.83;;;21.30;;
1320;SDS011;653;51.480;11.992;2023-03-03T21:40:27;42.13;;;21.70;;
1320;SDS011;653;51.480;11.992;2023-03-03T21:42:56;37.03;;;20.60;;
1320;SDS011;653;51.480;11.992;2023-03-03T21:45:27;40.47;;;21.13;;
1320;SDS011;653;51.480;11.992;2023-03-03T21:47:55;35.47;;;19.73;;
1320;SDS011;653;51.480;11.992;2023-03-03T21:50:22;41.87;;;21.47;;
1320;SDS011;653;51.480;11.992;2023-03-03T21:52:49;34.53;;;19.23;;
1320;SDS011;653;51.480;11.992;2023-03-03T21:55:16;44.10;;;22.07;;
1320;SDS011;653;51.480;11.992;2023-03-03T21:57:44;38.90;;;21.70;;
1320;SDS011;653;51.480;11.992;2023-03-03T22:00:09;38.60;;;21.40;;
1320;SDS011;653;51.480;11.992;2023-03-03T22:02:35;38.80;;;20.50;;
1320;SDS011;653;51.480;11.992;2023-03-03T22:05:02;41.27;;;20.50;;
1320;SDS011;653;51.480;11.992;2023-03-03T22:07:29;37.17;;;20.63;;
1320;SDS011;653;51.480;11.992;2023-03-03T22:09:55;43.33;;;22.40;;
1320;SDS011;653;51.480;11.992;2023-03-03T22:12:22;47.87;;;22.07;;
1320;SDS011;653;51.480;11.992;2023-03-03T22:14:47;40.77;;;21.17;;
1320;SDS011;653;51.480;11.992;2023-03-03T22:17:13;43.57;;;22.40;;
1320;SDS011;653;51.480;11.992;2023-03-03T22:19:38;41.03;;;21.40;;
1320;SDS011;653;51.480;11.992;2023-03-03T22:22:06;45.37;;;23.10;;
1320;SDS011;653;51.480;11.992;2023-03-03T22:24:32;45.50;;;23.03;;
1320;SDS011;653;51.480;11.992;2023-03-03T22:27:01;43.07;;;22.87;;
1320;SDS011;653;51.480;11.992;2023-03-03T22:29:28;40.70;;;22.57;;
1320;SDS011;653;51.480;11.992;2023-03-03T22:31:55;49.90;;;22.47;;
1320;SDS011;653;51.480;11.992;2023-03-03T22:34:20;42.40;;;21.17;;
1320;SDS011;653;51.480;11.992;2023-03-03T22:36:46;39.10;;;18.87;;
1320;SDS011;653;51.480;11.992;2023-03-03T22:39:12;43.40;;;20.77;;
1320;SDS011;653;51.480;11.992;2023-03-03T22:41:38;40.63;;;21.37;;
1320;SDS011;653;51.480;11.992;2023-03-03T22:44:04;36.73;;;18.03;;
1320;SDS011;653;51.480;11.992;2023-03-03T22:46:31;44.03;;;21.67;;